メインページ
METAR-TAF:

METAR-TAF

空港 :

ジブチ, ジブチ

ジブチ国際空港

緯度: 11-33N, 経度: 043-10E, 海抜: 49m

現時点の気象観測

当レポートは57分前の05:00(UTC)に作成
西/南西の風 10kt
気温 37°C
湿度 31%
気圧 1005 hPa
視程10km以上
1,500メートル以下は雲なし、積乱雲なし

METAR: HDAM 200500Z 24010KT CAVOK 37/17 Q1005

時間: 08:57 (05:57 UTC)

予報

当レポートは57分前の05:00(UTC)に作成
予報は20日の 06時(UTC)から 21日の 06時(UTC)まで有効
西の風 16kt
視程: 6000m
煙霧, 風塵
20日の 12時(UTC)から 20日の 15時(UTC)まで徐々に
の風 10kt
視程: 8000m
高度2300ftの雲は散在している
高度3000ftの雲はほとんどない, 積乱雲.
煙霧
21日の 00時(UTC)から 21日の 06時(UTC)まで徐々に
西の風 10kt
高度2300ftの雲はほとんどない

TAF: HDAM 200500Z 2006/2106 26016KT 6000 HZ BLDU NSC BECMG 2012/2015 08010KT 8000 HZ SCT023 FEW030CB BECMG 2100/2106 26010KT FEW023

4,000以上の空港の気象観測と天気予報(METAR報とTAF報)

利用可能な観測所は地図上に黄色い丸と赤い丸で示す。

丸の上にカーソルを重ねると観測所名を参照できる。

次にクリックすると気象観測と天気予報を参照できる。

マップの切り替え:黒色「×」印の緑ボタンをクリックして拡大、「-」印の緑ボタンをクリックして縮小、緑色の三角印をクリックして隣りの地図に切り替え


METAR-TAF: